createdAt,value
2019-05-22T00:00:39.130Z,100725.36
2019-05-22T00:01:44.127Z,100730.09
2019-05-22T00:02:47.434Z,100733.62
2019-05-22T00:03:57.731Z,100729.30
2019-05-22T00:05:09.042Z,100738.87
2019-05-22T00:06:12.572Z,100732.31
2019-05-22T00:07:15.187Z,100732.70
2019-05-22T00:08:18.339Z,100734.02
2019-05-22T00:09:28.406Z,100741.89
2019-05-22T00:10:32.715Z,100737.56
2019-05-22T00:11:35.855Z,100733.11
2019-05-22T00:12:46.699Z,100736.64
2019-05-22T00:13:45.006Z,100740.58
2019-05-22T00:14:47.222Z,100742.80
2019-05-22T00:15:51.305Z,100737.04
2019-05-22T00:16:54.523Z,100737.04
2019-05-22T00:17:58.847Z,100744.91
2019-05-22T00:19:02.624Z,100745.82
2019-05-22T00:20:06.813Z,100736.25
2019-05-22T00:21:09.643Z,100738.87
2019-05-22T00:22:17.856Z,100736.25
2019-05-22T00:23:21.641Z,100739.66
2019-05-22T00:24:25.724Z,100738.75
2019-05-22T00:25:33.095Z,100739.14
2019-05-22T00:26:35.094Z,100741.38
2019-05-22T00:27:38.038Z,100741.77
2019-05-22T00:28:41.020Z,100740.58
2019-05-22T00:29:44.490Z,100741.38
2019-05-22T00:30:48.265Z,100737.95
2019-05-22T00:31:50.958Z,100742.28
2019-05-22T00:32:53.563Z,100737.84
2019-05-22T00:33:57.911Z,100742.28
2019-05-22T00:35:00.495Z,100744.11
2019-05-22T00:36:03.733Z,100739.66
2019-05-22T00:37:08.236Z,100746.62
2019-05-22T00:38:11.807Z,100747.41
2019-05-22T00:39:14.726Z,100747.53
2019-05-22T00:40:18.532Z,100740.06
2019-05-22T00:41:23.295Z,100743.08
2019-05-22T00:42:27.056Z,100747.13
2019-05-22T00:43:38.332Z,100750.16
2019-05-22T00:44:42.091Z,100748.84
2019-05-22T00:45:46.179Z,100747.02
2019-05-22T00:46:49.955Z,100750.03
2019-05-22T00:47:52.555Z,100750.95
2019-05-22T00:48:54.985Z,100758.02
2019-05-22T00:49:58.752Z,100752.26
2019-05-22T00:51:16.123Z,100757.62
2019-05-22T00:52:35.902Z,100757.11
2019-05-22T00:53:47.878Z,100756.19
2019-05-22T00:55:07.879Z,100753.56
2019-05-22T00:56:30.756Z,100753.05
2019-05-22T00:57:54.884Z,100755.67
2019-05-22T00:59:02.259Z,100758.42
2019-05-22T01:00:27.852Z,100760.64
2019-05-22T01:01:38.738Z,100753.84
2019-05-22T01:02:42.645Z,100755.16
2019-05-22T01:03:46.118Z,100758.30
2019-05-22T01:04:52.447Z,100755.67
2019-05-22T01:05:54.941Z,100758.69
2019-05-22T01:06:58.711Z,100761.83
2019-05-22T01:08:02.497Z,100763.14
2019-05-22T01:09:06.762Z,100761.71
2019-05-22T01:10:10.445Z,100763.94
2019-05-22T01:11:14.206Z,100764.45
2019-05-22T01:12:17.459Z,100760.92
2019-05-22T01:13:21.267Z,100764.85
2019-05-22T01:14:23.909Z,100764.34
2019-05-22T01:15:27.247Z,100760.40
2019-05-22T01:16:29.456Z,100759.88
2019-05-22T01:17:33.232Z,100763.81
2019-05-22T01:18:35.938Z,100768.39
2019-05-22T01:19:40.039Z,100766.95
2019-05-22T01:20:42.880Z,100763.02
2019-05-22T01:21:46.508Z,100775.73
2019-05-22T01:22:51.312Z,100768.27
2019-05-22T01:23:55.741Z,100766.95
2019-05-22T01:24:59.515Z,100769.18
2019-05-22T01:26:03.520Z,100777.96
2019-05-22T01:27:07.295Z,100775.22
2019-05-22T01:28:10.224Z,100771.69
2019-05-22T01:29:12.443Z,100766.84
2019-05-22T01:30:22.396Z,100769.98
2019-05-22T01:31:34.542Z,100773.91
2019-05-22T01:32:45.761Z,100771.80
2019-05-22T01:34:05.545Z,100776.14
2019-05-22T01:35:09.637Z,100776.53
2019-05-22T01:36:20.395Z,100775.22
2019-05-22T01:37:24.416Z,100773.00
2019-05-22T01:38:26.632Z,100775.61
2019-05-22T01:39:51.056Z,100776.93
2019-05-22T01:40:57.476Z,100779.16
2019-05-22T01:42:02.097Z,100779.55
2019-05-22T01:43:05.886Z,100783.09
2019-05-22T01:44:09.680Z,100778.63
2019-05-22T01:45:16.285Z,100786.11
2019-05-22T01:46:20.066Z,100777.69
2019-05-22T01:47:22.707Z,100781.26
2019-05-22T01:48:26.092Z,100783.48
2019-05-22T01:49:28.308Z,100787.94
2019-05-22T01:50:31.791Z,100787.41
2019-05-22T01:51:33.999Z,100782.17
2019-05-22T01:52:38.717Z,100786.50
2019-05-22T01:53:42.240Z,100787.94
2019-05-22T01:54:45.624Z,100789.25
2019-05-22T01:55:48.242Z,100786.50
2019-05-22T01:56:51.908Z,100788.84
2019-05-22T01:57:54.133Z,100786.11
2019-05-22T01:58:58.621Z,100787.41
2019-05-22T02:00:00.843Z,100784.39
2019-05-22T02:01:06.807Z,100790.04
2019-05-22T02:02:11.756Z,100790.95
2019-05-22T02:03:15.168Z,100787.41
2019-05-22T02:04:17.387Z,100786.11
2019-05-22T02:05:21.283Z,100785.19
2019-05-22T02:06:23.813Z,100783.88
2019-05-22T02:07:26.702Z,100786.11
2019-05-22T02:08:30.501Z,100790.04
2019-05-22T02:09:34.193Z,100787.41
2019-05-22T02:10:36.987Z,100790.04
2019-05-22T02:11:39.774Z,100782.17
2019-05-22T02:12:41.991Z,100794.49
2019-05-22T02:13:44.935Z,100785.71
2019-05-22T02:14:48.351Z,100786.50
2019-05-22T02:15:50.912Z,100792.66
2019-05-22T02:16:56.872Z,100794.89
2019-05-22T02:17:58.602Z,100788.73
2019-05-22T02:19:02.497Z,100788.33
2019-05-22T02:20:07.129Z,100792.27
2019-05-22T02:21:10.793Z,100789.13
2019-05-22T02:22:15.583Z,100790.04
2019-05-22T02:23:17.819Z,100792.66
2019-05-22T02:24:20.426Z,100795.28
2019-05-22T02:25:24.123Z,100788.73
2019-05-22T02:26:26.706Z,100789.48
2019-05-22T02:27:30.115Z,100794.38
2019-05-22T02:28:33.122Z,100794.73
2019-05-22T02:29:35.941Z,100796.59
2019-05-22T02:30:40.635Z,100796.99
2019-05-22T02:31:43.780Z,100795.68
2019-05-22T02:32:48.816Z,100796.99
2019-05-22T02:34:01.514Z,100799.22
2019-05-22T02:35:05.273Z,100794.73
2019-05-22T02:36:07.694Z,100791.75
2019-05-22T02:37:11.782Z,100790.80
2019-05-22T02:38:14.317Z,100795.68
2019-05-22T02:39:22.056Z,100799.61
2019-05-22T02:40:24.491Z,100799.61
2019-05-22T02:41:27.071Z,100799.06
2019-05-22T02:42:30.973Z,100799.61
2019-05-22T02:43:33.947Z,100798.66
2019-05-22T02:44:36.688Z,100796.83
2019-05-22T02:45:40.304Z,100799.06
2019-05-22T02:46:42.514Z,100802.59
2019-05-22T02:47:45.810Z,100802.23
2019-05-22T02:48:49.039Z,100802.23
2019-05-22T02:49:52.127Z,100798.66
2019-05-22T02:50:54.989Z,100805.22
2019-05-22T02:51:57.562Z,100811.26
2019-05-22T02:52:59.764Z,100811.77
2019-05-22T02:54:03.155Z,100809.55
2019-05-22T02:55:05.669Z,100817.97
2019-05-22T02:56:08.276Z,100817.41
2019-05-22T02:57:11.940Z,100821.34
2019-05-22T02:58:15.545Z,100823.58
2019-05-22T02:59:18.065Z,100826.59
2019-05-22T03:00:21.902Z,100821.74
2019-05-22T03:01:24.223Z,100828.45
2019-05-22T03:02:27.113Z,100829.22
2019-05-22T03:03:30.662Z,100821.74
2019-05-22T03:04:34.017Z,100827.91
2019-05-22T03:05:36.237Z,100823.97
2019-05-22T03:06:38.868Z,100828.70
2019-05-22T03:07:41.291Z,100821.74
2019-05-22T03:08:44.667Z,100829.61
2019-05-22T03:09:46.881Z,100827.78
2019-05-22T03:10:50.477Z,100830.01
2019-05-22T03:11:52.697Z,100830.92
2019-05-22T03:12:55.374Z,100833.55
2019-05-22T03:13:59.787Z,100827.38
2019-05-22T03:15:02.871Z,100826.87
2019-05-22T03:16:05.989Z,100834.34
2019-05-22T03:17:10.067Z,100829.09
2019-05-22T03:18:13.825Z,100831.32
2019-05-22T03:19:17.611Z,100833.94
2019-05-22T03:20:21.392Z,100833.02
2019-05-22T03:21:23.982Z,100836.56
2019-05-22T03:22:36.923Z,100836.95
2019-05-22T03:23:39.897Z,100838.27
2019-05-22T03:24:42.115Z,100837.88
2019-05-22T03:25:45.091Z,100847.45
2019-05-22T03:26:47.827Z,100844.83
2019-05-22T03:27:50.637Z,100853.61
2019-05-22T03:28:53.280Z,100846.13
2019-05-22T03:29:56.855Z,100850.86
2019-05-22T03:30:59.467Z,100848.76
2019-05-22T03:32:02.751Z,100847.84
2019-05-22T03:33:05.965Z,100851.77
2019-05-22T03:34:09.926Z,100851.77
2019-05-22T03:35:13.040Z,100854.00
2019-05-22T03:36:21.571Z,100852.69
2019-05-22T03:37:25.107Z,100854.00
2019-05-22T03:38:27.997Z,100849.95
2019-05-22T03:39:30.223Z,100850.86
2019-05-22T03:40:33.324Z,100849.16
2019-05-22T03:41:35.808Z,100846.53
2019-05-22T03:42:38.379Z,100850.86
2019-05-22T03:43:41.200Z,100855.71
2019-05-22T03:44:44.202Z,100857.41
2019-05-22T03:45:46.413Z,100857.02
2019-05-22T03:46:48.998Z,100853.48
2019-05-22T03:47:51.191Z,100850.86
2019-05-22T03:48:53.772Z,100859.64
2019-05-22T03:49:56.802Z,100856.50
2019-05-22T03:51:00.190Z,100856.11
2019-05-22T03:52:07.888Z,100852.97
2019-05-22T03:53:10.556Z,100855.19
2019-05-22T03:54:12.780Z,100865.68
2019-05-22T03:55:15.368Z,100861.34
2019-05-22T03:56:17.569Z,100861.75
2019-05-22T03:57:21.857Z,100865.28
2019-05-22T03:58:24.745Z,100868.30
2019-05-22T03:59:28.251Z,100872.62
2019-05-22T04:00:30.854Z,100872.23
2019-05-22T04:01:33.904Z,100867.39
2019-05-22T04:02:36.405Z,100872.11
2019-05-22T04:03:38.985Z,100873.15
2019-05-22T04:04:42.108Z,100870.01
2019-05-22T04:05:44.705Z,100876.16
2019-05-22T04:06:48.299Z,100877.48
2019-05-22T04:07:50.902Z,100883.52
2019-05-22T04:08:54.118Z,100877.36
2019-05-22T04:09:58.025Z,100877.48
2019-05-22T04:11:02.010Z,100883.91
2019-05-22T04:12:05.838Z,100891.78
2019-05-22T04:13:08.036Z,100882.20
2019-05-22T04:14:10.646Z,100880.89
2019-05-22T04:15:13.497Z,100891.78
2019-05-22T04:16:18.376Z,100888.23
2019-05-22T04:17:21.290Z,100888.76
2019-05-22T04:18:24.985Z,100881.69
2019-05-22T04:19:27.238Z,100890.47
2019-05-22T04:20:29.824Z,100886.92
2019-05-22T04:21:32.327Z,100889.95
2019-05-22T04:22:34.906Z,100890.86
2019-05-22T04:23:37.117Z,100890.86
2019-05-22T04:24:41.305Z,100895.31
2019-05-22T04:25:43.526Z,100900.95
2019-05-22T04:26:46.609Z,100893.48
2019-05-22T04:27:48.869Z,100896.50
2019-05-22T04:28:53.321Z,100896.11
2019-05-22T04:29:55.850Z,100899.13
2019-05-22T04:30:59.915Z,100900.03
2019-05-22T04:32:13.796Z,100903.97
2019-05-22T04:33:16.487Z,100900.43
2019-05-22T04:34:19.940Z,100902.66
2019-05-22T04:35:24.303Z,100909.22
2019-05-22T04:36:27.212Z,100906.98
2019-05-22T04:37:31.281Z,100909.09
2019-05-22T04:38:34.407Z,100912.63
2019-05-22T04:39:37.192Z,100916.95
2019-05-22T04:40:39.404Z,100918.66
2019-05-22T04:41:42.006Z,100923.52
2019-05-22T04:42:44.259Z,100924.82
2019-05-22T04:43:46.847Z,100916.95
2019-05-22T04:44:49.478Z,100925.34
2019-05-22T04:45:52.069Z,100922.20
2019-05-22T04:46:54.787Z,100932.81
2019-05-22T04:47:57.376Z,100930.59
2019-05-22T04:48:59.591Z,100928.75
2019-05-22T04:50:07.705Z,100931.90
2019-05-22T04:51:06.663Z,100933.48
2019-05-22T04:52:10.547Z,100930.06
2019-05-22T04:53:12.752Z,100936.09
2019-05-22T04:54:15.322Z,100929.55
2019-05-22T04:55:17.956Z,100937.94
2019-05-22T04:56:20.535Z,100937.02
2019-05-22T04:57:22.776Z,100937.02
2019-05-22T04:58:30.920Z,100933.48
2019-05-22T04:59:33.323Z,100939.24
2019-05-22T05:00:37.369Z,100934.39
2019-05-22T05:01:40.074Z,100946.06
2019-05-22T05:02:42.668Z,100939.12
2019-05-22T05:03:45.063Z,100934.39
2019-05-22T05:04:47.664Z,100939.12
2019-05-22T05:05:52.091Z,100940.43
2019-05-22T05:06:55.129Z,100938.33
2019-05-22T05:07:57.332Z,100940.83
2019-05-22T05:08:59.911Z,100939.12
2019-05-22T05:10:02.640Z,100933.48
2019-05-22T05:11:05.230Z,100942.66
2019-05-22T05:12:07.536Z,100940.43
2019-05-22T05:13:10.118Z,100940.55
2019-05-22T05:14:12.380Z,100942.91
2019-05-22T05:15:15.756Z,100942.26
2019-05-22T05:16:17.966Z,100945.01
2019-05-22T05:17:20.557Z,100949.06
2019-05-22T05:18:22.769Z,100954.31
2019-05-22T05:19:25.450Z,100951.56
2019-05-22T05:20:27.720Z,100951.56
2019-05-22T05:21:30.302Z,100950.13
2019-05-22T05:22:32.502Z,100949.61
2019-05-22T05:23:35.073Z,100955.49
2019-05-22T05:24:37.314Z,100951.56
2019-05-22T05:25:40.096Z,100942.91
2019-05-22T05:26:43.508Z,100946.84
2019-05-22T05:27:46.791Z,100949.86
2019-05-22T05:28:48.993Z,100951.56
2019-05-22T05:29:51.558Z,100948.42
2019-05-22T05:30:54.874Z,100946.59
2019-05-22T05:31:58.275Z,100949.61
2019-05-22T05:33:02.186Z,100947.62
2019-05-22T05:34:05.972Z,100947.23
2019-05-22T05:35:09.290Z,100954.70
2019-05-22T05:36:12.380Z,100955.09
2019-05-22T05:37:16.184Z,100953.66
2019-05-22T05:38:19.061Z,100953.54
2019-05-22T05:39:21.318Z,100948.30
2019-05-22T05:40:24.496Z,100956.68
2019-05-22T05:41:26.707Z,100964.94
2019-05-22T05:42:29.292Z,100960.61
2019-05-22T05:43:31.721Z,100949.08
2019-05-22T05:44:34.310Z,100953.02
2019-05-22T05:45:36.661Z,100957.73
2019-05-22T05:46:39.222Z,100956.27
2019-05-22T05:47:43.213Z,100960.36
2019-05-22T05:48:45.830Z,100956.83
2019-05-22T05:49:49.239Z,100963.38
2019-05-22T05:50:51.818Z,100966.91
2019-05-22T05:51:55.834Z,100960.75
2019-05-22T05:52:58.747Z,100957.73
2019-05-22T05:54:03.939Z,100962.20
2019-05-22T05:55:06.538Z,100969.66
2019-05-22T05:56:08.760Z,100966.52
2019-05-22T05:57:11.624Z,100964.02
2019-05-22T05:58:15.414Z,100970.98
2019-05-22T05:59:18.182Z,100970.19
2019-05-22T06:00:22.492Z,100973.20
2019-05-22T06:01:30.814Z,100970.06
2019-05-22T06:02:33.169Z,100972.80
2019-05-22T06:03:36.301Z,100975.43
2019-05-22T06:04:38.599Z,100970.19
2019-05-22T06:05:41.213Z,100976.34
2019-05-22T06:06:43.414Z,100972.28
2019-05-22T06:07:46.090Z,100973.72
2019-05-22T06:08:48.462Z,100975.95
2019-05-22T06:09:51.065Z,100976.73
2019-05-22T06:10:53.778Z,100980.67
2019-05-22T06:11:57.316Z,100976.22
2019-05-22T06:13:00.414Z,100981.86
2019-05-22T06:14:03.671Z,100977.92
2019-05-22T06:15:06.310Z,100977.01
2019-05-22T06:16:09.475Z,100984.88
2019-05-22T06:17:12.279Z,100982.25
2019-05-22T06:18:14.853Z,100984.88
2019-05-22T06:19:17.305Z,100986.19
2019-05-22T06:20:20.628Z,100986.58
2019-05-22T06:21:22.870Z,100995.36
2019-05-22T06:22:25.746Z,100987.10
2019-05-22T06:23:28.987Z,101002.44
2019-05-22T06:24:32.912Z,100995.36
2019-05-22T06:25:35.135Z,100990.52
2019-05-22T06:26:37.705Z,100993.13
2019-05-22T06:27:44.514Z,101000.08
2019-05-22T06:28:47.287Z,100998.38
2019-05-22T06:29:49.551Z,101002.31
2019-05-22T06:30:52.501Z,101004.02
2019-05-22T06:31:54.713Z,101003.10
2019-05-22T06:32:58.025Z,101001.39
2019-05-22T06:34:00.352Z,100997.46
2019-05-22T06:35:03.827Z,101000.08
2019-05-22T06:36:07.461Z,101006.64
2019-05-22T06:37:10.853Z,100999.53
2019-05-22T06:38:13.057Z,101008.86
2019-05-22T06:39:16.499Z,101003.46
2019-05-22T06:40:19.821Z,101009.66
2019-05-22T06:41:24.876Z,101011.33
2019-05-22T06:42:27.785Z,101016.73
2019-05-22T06:43:30.714Z,101019.35
2019-05-22T06:44:36.913Z,101019.75
2019-05-22T06:45:39.544Z,101014.50
2019-05-22T06:46:41.796Z,101016.20
2019-05-22T06:47:44.365Z,101014.90
2019-05-22T06:48:46.564Z,101024.08
2019-05-22T06:49:49.560Z,101019.58
2019-05-22T06:50:52.030Z,101015.26
2019-05-22T06:51:54.787Z,101024.44
2019-05-22T06:53:09.526Z,101027.45
2019-05-22T06:54:01.609Z,101025.74
2019-05-22T06:55:04.537Z,101027.84
2019-05-22T06:56:07.138Z,101032.69
2019-05-22T06:57:40.684Z,101030.47
2019-05-22T06:58:42.890Z,101026.53
2019-05-22T06:59:47.182Z,101038.33
2019-05-22T07:00:49.421Z,101036.63
2019-05-22T07:02:00.340Z,101040.16
2019-05-22T07:02:56.368Z,101039.41
2019-05-22T07:03:58.976Z,101037.94
2019-05-22T07:05:01.213Z,101038.33
2019-05-22T07:06:04.380Z,101039.25
2019-05-22T07:07:11.326Z,101035.58
2019-05-22T07:08:11.662Z,101040.03
2019-05-22T07:09:13.873Z,101037.28
2019-05-22T07:10:16.960Z,101034.14
2019-05-22T07:11:19.303Z,101039.91
2019-05-22T07:12:24.566Z,101042.01
2019-05-22T07:13:27.678Z,101043.32
2019-05-22T07:14:30.654Z,101045.55
2019-05-22T07:15:34.171Z,101041.09
2019-05-22T07:16:36.747Z,101045.42
2019-05-22T07:17:39.891Z,101047.64
2019-05-22T07:18:42.825Z,101052.89
2019-05-22T07:19:45.828Z,101048.05
2019-05-22T07:20:49.027Z,101047.13
2019-05-22T07:21:52.423Z,101055.52
2019-05-22T07:22:55.038Z,101044.11
2019-05-22T07:23:57.239Z,101057.61
2019-05-22T07:24:59.819Z,101060.23
2019-05-22T07:26:04.230Z,101061.94
2019-05-22T07:27:08.376Z,101058.00
2019-05-22T07:28:11.404Z,101056.17
2019-05-22T07:29:14.364Z,101064.56
2019-05-22T07:30:16.758Z,101064.56
2019-05-22T07:31:19.343Z,101068.48
2019-05-22T07:32:21.562Z,101067.58
2019-05-22T07:33:25.412Z,101072.03
2019-05-22T07:34:27.605Z,101071.11
2019-05-22T07:35:49.773Z,101071.11
2019-05-22T07:36:34.127Z,101069.28
2019-05-22T07:37:37.705Z,101072.81
2019-05-22T07:38:40.310Z,101061.02
2019-05-22T07:39:42.897Z,101072.81
2019-05-22T07:40:49.655Z,101077.66
2019-05-22T07:41:49.379Z,101074.91
2019-05-22T07:42:51.611Z,101078.84
2019-05-22T07:43:54.174Z,101076.23
2019-05-22T07:44:56.384Z,101073.21
2019-05-22T07:45:59.986Z,101077.53
2019-05-22T07:47:02.186Z,101073.21
2019-05-22T07:48:05.061Z,101077.93
2019-05-22T07:49:07.454Z,101078.84
2019-05-22T07:50:10.032Z,101086.71
2019-05-22T07:51:12.642Z,101079.38
2019-05-22T07:52:15.259Z,101077.93
2019-05-22T07:53:17.484Z,101081.47
2019-05-22T07:54:20.047Z,101078.45
2019-05-22T07:55:22.626Z,101080.95
2019-05-22T07:56:25.519Z,101084.61
2019-05-22T07:57:27.920Z,101080.16
2019-05-22T07:58:31.534Z,101074.00
2019-05-22T07:59:33.728Z,101081.86
2019-05-22T08:00:36.716Z,101080.16
2019-05-22T08:01:39.122Z,101076.63
2019-05-22T08:02:41.772Z,101078.32
2019-05-22T08:03:44.417Z,101076.63
2019-05-22T08:04:46.983Z,101074.78
2019-05-22T08:05:49.938Z,101082.78
2019-05-22T08:06:52.815Z,101090.64
2019-05-22T08:07:55.724Z,101089.20
2019-05-22T08:09:00.830Z,101087.89
2019-05-22T08:10:03.341Z,101081.34
2019-05-22T08:11:06.830Z,101088.29
2019-05-22T08:12:10.635Z,101080.81
2019-05-22T08:13:13.228Z,101086.98
2019-05-22T08:14:15.439Z,101086.58
2019-05-22T08:15:18.449Z,101081.73
2019-05-22T08:16:21.049Z,101083.83
2019-05-22T08:17:23.656Z,101086.98
2019-05-22T08:18:25.990Z,101085.66
2019-05-22T08:19:28.569Z,101086.58
2019-05-22T08:20:30.798Z,101093.92
2019-05-22T08:21:33.472Z,101089.98
2019-05-22T08:22:37.311Z,101102.70
2019-05-22T08:23:40.247Z,101105.84
2019-05-22T08:24:42.813Z,101101.00
2019-05-22T08:25:45.367Z,101097.86
2019-05-22T08:26:54.413Z,101104.28
2019-05-22T08:27:51.808Z,101106.91
2019-05-22T08:28:54.068Z,101112.54
2019-05-22T08:29:57.133Z,101116.47
2019-05-22T08:30:59.420Z,101116.47
2019-05-22T08:32:02.015Z,101116.83
2019-05-22T08:33:05.012Z,101114.20
2019-05-22T08:34:08.413Z,101120.76
2019-05-22T08:35:11.843Z,101119.84
2019-05-22T08:36:16.140Z,101117.78
2019-05-22T08:37:18.721Z,101120.76
2019-05-22T08:38:21.404Z,101116.83
2019-05-22T08:39:23.636Z,101120.76
2019-05-22T08:40:26.623Z,101122.86
2019-05-22T08:41:30.369Z,101119.45
2019-05-22T08:42:35.471Z,101126.17
2019-05-22T08:44:03.449Z,101127.88
2019-05-22T08:44:41.855Z,101127.88
2019-05-22T08:45:44.052Z,101128.27
2019-05-22T08:46:46.737Z,101138.36
2019-05-22T08:47:49.043Z,101135.05
2019-05-22T08:48:51.747Z,101132.03
2019-05-22T08:49:54.036Z,101142.13
2019-05-22T08:50:57.528Z,101138.58
2019-05-22T08:51:59.768Z,101138.98
2019-05-22T08:53:02.368Z,101136.36
2019-05-22T08:54:05.992Z,101136.36
2019-05-22T08:55:09.275Z,101130.20
2019-05-22T08:56:11.497Z,101139.50
2019-05-22T08:57:14.185Z,101138.19
2019-05-22T08:58:16.438Z,101140.81
2019-05-22T08:59:20.353Z,101140.42
2019-05-22T09:00:24.161Z,101140.06
2019-05-22T09:01:26.768Z,101144.52
2019-05-22T09:02:28.976Z,101148.45
2019-05-22T09:03:31.831Z,101136.13
2019-05-22T09:04:34.192Z,101151.07
2019-05-22T09:05:36.972Z,101153.69
2019-05-22T09:06:39.174Z,101155.13
2019-05-22T09:07:41.788Z,101161.95
2019-05-22T09:08:43.989Z,101163.26
2019-05-22T09:09:46.569Z,101155.79
2019-05-22T09:10:49.360Z,101161.95
2019-05-22T09:11:51.968Z,101168.89
2019-05-22T09:12:55.137Z,101167.19
2019-05-22T09:13:57.622Z,101167.94
2019-05-22T09:14:59.755Z,101168.89
2019-05-22T09:16:02.341Z,101162.34
2019-05-22T09:17:06.129Z,101164.56
2019-05-22T09:18:08.766Z,101172.83
2019-05-22T09:19:11.274Z,101167.58
2019-05-22T09:20:13.966Z,101169.25
2019-05-22T09:21:16.711Z,101166.27
2019-05-22T09:22:19.659Z,101171.52
2019-05-22T09:23:21.899Z,101168.89
2019-05-22T09:24:26.550Z,101168.89
2019-05-22T09:25:29.012Z,101172.05
2019-05-22T09:26:31.612Z,101165.87
2019-05-22T09:27:34.215Z,101173.19
2019-05-22T09:28:37.281Z,101171.52
2019-05-22T09:29:39.483Z,101168.89
2019-05-22T09:30:42.088Z,101171.88
2019-05-22T09:31:44.535Z,101174.49
2019-05-22T09:32:47.719Z,101184.62
2019-05-22T09:33:50.027Z,101192.48
2019-05-22T09:34:52.664Z,101178.43
2019-05-22T09:35:56.016Z,101178.82
2019-05-22T09:36:58.666Z,101192.84
2019-05-22T09:38:00.897Z,101183.67
2019-05-22T09:39:03.980Z,101188.91
2019-05-22T09:40:06.180Z,101190.23
2019-05-22T09:41:09.735Z,101195.11
2019-05-22T09:42:11.917Z,101191.53
2019-05-22T09:43:14.559Z,101196.78
2019-05-22T09:44:16.755Z,101193.23
2019-05-22T09:45:19.327Z,101197.73
2019-05-22T09:46:22.882Z,101198.65
2019-05-22T09:47:25.727Z,101203.89
2019-05-22T09:48:29.611Z,101203.11
2019-05-22T09:49:32.950Z,101207.43
2019-05-22T09:50:35.757Z,101207.43
2019-05-22T09:51:38.341Z,101205.73
2019-05-22T09:52:56.425Z,101212.80
2019-05-22T09:53:45.182Z,101206.13
2019-05-22T09:54:47.398Z,101215.30
2019-05-22T09:55:50.269Z,101210.58
2019-05-22T09:56:52.501Z,101216.87
2019-05-22T09:57:55.172Z,101214.64
2019-05-22T09:58:57.601Z,101218.83
2019-05-22T10:00:00.177Z,101220.54
2019-05-22T10:01:02.569Z,101224.86
2019-05-22T10:02:05.795Z,101217.75
2019-05-22T10:03:08.728Z,101222.47
2019-05-22T10:04:11.740Z,101227.70
2019-05-22T10:05:14.350Z,101219.31
2019-05-22T10:06:16.898Z,101233.87
2019-05-22T10:07:19.281Z,101227.31
2019-05-22T10:08:22.255Z,101229.55
2019-05-22T10:09:25.736Z,101222.98
2019-05-22T10:10:28.334Z,101227.31
2019-05-22T10:11:30.635Z,101224.30
2019-05-22T10:12:33.510Z,101233.13
2019-05-22T10:13:35.931Z,101232.56
2019-05-22T10:14:39.590Z,101223.38
2019-05-22T10:15:41.827Z,101234.43
2019-05-22T10:16:44.419Z,101237.80
2019-05-22T10:17:46.718Z,101237.41
2019-05-22T10:18:53.115Z,101235.74
2019-05-22T10:19:53.960Z,101239.67
2019-05-22T10:20:56.952Z,101234.78
2019-05-22T10:21:59.172Z,101243.21
2019-05-22T10:23:14.974Z,101237.05
2019-05-22T10:24:06.774Z,101245.44
2019-05-22T10:25:15.432Z,101244.13
2019-05-22T10:26:13.618Z,101243.21
2019-05-22T10:27:16.518Z,101244.52
2019-05-22T10:28:19.118Z,101244.52
2019-05-22T10:29:21.732Z,101250.16
2019-05-22T10:30:24.613Z,101249.77
2019-05-22T10:31:27.494Z,101245.83
2019-05-22T10:32:32.110Z,101243.73
2019-05-22T10:33:33.925Z,101254.62
2019-05-22T10:34:36.163Z,101255.01
2019-05-22T10:35:39.940Z,101251.08
2019-05-22T10:36:43.238Z,101248.84
2019-05-22T10:37:46.003Z,101252.22
2019-05-22T10:38:48.224Z,101246.98
2019-05-22T10:39:50.859Z,101253.00
2019-05-22T10:40:53.053Z,101253.78
2019-05-22T10:41:55.626Z,101252.48
2019-05-22T10:42:57.826Z,101259.95
2019-05-22T10:44:00.442Z,101257.72
2019-05-22T10:45:02.650Z,101259.03
2019-05-22T10:46:05.752Z,101255.09
2019-05-22T10:47:07.943Z,101262.05
2019-05-22T10:48:10.529Z,101258.89
2019-05-22T10:49:12.728Z,101260.20
2019-05-22T10:50:15.331Z,101262.44
2019-05-22T10:51:17.548Z,101265.06
2019-05-22T10:52:20.122Z,101261.52
2019-05-22T10:53:33.039Z,101265.06
2019-05-22T10:54:26.573Z,101257.19
2019-05-22T10:55:29.718Z,101265.06
2019-05-22T10:56:32.296Z,101264.14
2019-05-22T10:57:34.767Z,101264.27
2019-05-22T10:58:37.339Z,101258.25
2019-05-22T10:59:39.566Z,101259.55
2019-05-22T11:00:42.351Z,101263.48
2019-05-22T11:01:44.763Z,101259.03
2019-05-22T11:02:47.739Z,101266.11
2019-05-22T11:03:49.955Z,101272.39
2019-05-22T11:04:52.822Z,101269.25
2019-05-22T11:06:06.427Z,101272.26
2019-05-22T11:06:59.546Z,101264.66
2019-05-22T11:08:01.754Z,101263.47
2019-05-22T11:09:05.563Z,101262.55
2019-05-22T11:10:08.586Z,101263.55
2019-05-22T11:11:11.178Z,101264.86
2019-05-22T11:12:14.048Z,101268.27
2019-05-22T11:13:16.663Z,101255.91
2019-05-22T11:14:19.475Z,101258.92
2019-05-22T11:15:22.532Z,101263.50
2019-05-22T11:16:25.147Z,101262.98
2019-05-22T11:17:27.701Z,101265.98
2019-05-22T11:18:29.887Z,101269.14
2019-05-22T11:19:32.788Z,101272.93
2019-05-22T11:20:36.089Z,101272.93
2019-05-22T11:21:38.682Z,101275.16
2019-05-22T11:22:41.072Z,101268.22
2019-05-22T11:23:52.158Z,101270.98
2019-05-22T11:24:47.508Z,101274.63
2019-05-22T11:25:50.093Z,101282.50
2019-05-22T11:26:52.489Z,101276.86
2019-05-22T11:27:55.675Z,101278.17
2019-05-22T11:28:58.006Z,101277.65
2019-05-22T11:30:00.622Z,101283.02
2019-05-22T11:31:04.459Z,101281.19
2019-05-22T11:32:07.488Z,101282.75
2019-05-22T11:33:10.126Z,101288.52
2019-05-22T11:34:12.726Z,101292.28
2019-05-22T11:35:15.382Z,101284.59
2019-05-22T11:36:18.483Z,101288.73
2019-05-22T11:37:20.912Z,101283.11
2019-05-22T11:38:23.492Z,101285.73
2019-05-22T11:39:38.905Z,101284.28
2019-05-22T11:40:31.274Z,101288.73
2019-05-22T11:41:33.633Z,101291.14
2019-05-22T11:42:36.533Z,101294.55
2019-05-22T11:43:39.166Z,101292.92
2019-05-22T11:44:41.985Z,101296.47
2019-05-22T11:45:45.453Z,101294.77
2019-05-22T11:46:48.452Z,101298.08
2019-05-22T11:47:50.638Z,101299.22
2019-05-22T11:48:53.410Z,101298.69
2019-05-22T11:49:55.638Z,101301.45
2019-05-22T11:51:00.935Z,101301.31
2019-05-22T11:52:02.083Z,101295.55
2019-05-22T11:53:04.616Z,101293.31
2019-05-22T11:54:09.552Z,101296.08
2019-05-22T11:55:11.385Z,101291.75
2019-05-22T11:56:13.582Z,101295.16
2019-05-22T11:57:16.382Z,101291.61
2019-05-22T11:58:18.586Z,101291.73
2019-05-22T11:59:21.987Z,101294.88
2019-05-22T12:00:24.450Z,101295.02
2019-05-22T12:01:26.967Z,101298.03
2019-05-22T12:02:29.167Z,101303.66
2019-05-22T12:03:31.744Z,101306.03
2019-05-22T12:04:47.379Z,101305.89